Time;durP1;ratioP1;P1;durP2;ratioP2;P2;SDS_P1;SDS_P2;PMS_P1;PMS_P2;Temp;Humidity;BMP_temperature;BMP_pressure;BME280_temperature;BME280_humidity;BME280_pressure;Samples;Min_cycle;Max_cycle;Signal;HPM_P1;HPM_P2
2022/07/19 00:01:24;;;;;;;;;;;15.80;54.50;;;;;;4133056;28;20063;-85
2022/07/19 00:03:43;;;;;;;;;;;15.70;54.60;;;;;;4134348;28;19963;-85
2022/07/19 00:06:03;;;;;;;;;;;15.70;54.60;;;;;;4117264;28;20270;-85
2022/07/19 00:08:22;;;;;;;;;;;15.70;55.30;;;;;;4120560;28;19925;-85
2022/07/19 00:10:41;;;;;;;;;;;15.70;54.80;;;;;;4121631;28;19978;-85
2022/07/19 00:13:00;;;;;;;;;;;15.60;54.70;;;;;;4137464;28;19921;-85
2022/07/19 00:15:19;;;;;;;;;;;15.60;54.90;;;;;;4121429;28;19948;-85
2022/07/19 00:17:40;;;;;;;;;;;15.50;55.20;;;;;;4132730;28;19945;-85
2022/07/19 00:20:00;;;;;;;;;;;15.40;54.70;;;;;;4119923;28;19992;-85
2022/07/19 00:22:19;;;;;;;;;;;15.50;54.60;;;;;;4120755;28;20393;-85
2022/07/19 00:24:39;;;;;;;;;;;15.40;54.70;;;;;;4133278;28;20004;-85
2022/07/19 00:26:58;;;;;;;;;;;15.30;55.00;;;;;;4132630;28;19972;-85
2022/07/19 00:29:17;;;;;;;;;;;15.40;55.20;;;;;;4119074;28;19924;-85
2022/07/19 00:31:37;;;;;;;;;;;15.30;55.10;;;;;;4134938;28;19923;-85
2022/07/19 00:33:56;;;;;;;;;;;15.30;55.20;;;;;;4134727;28;19967;-84
2022/07/19 00:36:15;;;;;;;;;;;15.20;55.30;;;;;;4109570;28;19964;-85
2022/07/19 00:38:34;;;;;;;;;;;15.20;55.20;;;;;;4129829;28;19928;-85
2022/07/19 00:40:54;;;;;;;;;;;15.20;55.20;;;;;;4134289;28;20439;-85
2022/07/19 00:43:13;;;;;;;;;;;15.10;55.20;;;;;;4135911;28;20060;-85
2022/07/19 00:45:32;;;;;;;;;;;15.10;55.20;;;;;;4134711;28;19921;-85
2022/07/19 00:47:51;;;;;;;;;;;15.10;55.40;;;;;;4141806;28;19940;-85
2022/07/19 00:50:11;;;;;;;;;;;15.00;55.50;;;;;;4133183;28;19976;-86
2022/07/19 00:52:32;;;;;;;;;;;15.00;55.60;;;;;;4117357;28;20420;-86
2022/07/19 00:54:52;;;;;;;;;;;14.90;55.70;;;;;;4132294;28;19940;-85
2022/07/19 00:57:12;;;;;;;;;;;15.00;56.30;;;;;;4131615;28;19928;-85
2022/07/19 00:59:32;;;;;;;;;;;14.90;55.70;;;;;;4115444;28;19929;-86
2022/07/19 01:01:51;;;;;;;;;;;14.80;55.70;;;;;;4130622;28;20349;-85
2022/07/19 01:04:11;;;;;;;;;;;14.80;55.60;;;;;;4117721;28;19925;-85
2022/07/19 01:06:30;;;;;;;;;;;14.80;55.60;;;;;;4133749;28;19968;-85
2022/07/19 01:08:49;;;;;;;;;;;14.70;55.60;;;;;;4116786;28;19976;-85
2022/07/19 01:11:08;;;;;;;;;;;14.70;57.10;;;;;;4126550;28;19928;-86
2022/07/19 01:13:27;;;;;;;;;;;14.70;56.60;;;;;;4135742;28;19979;-85
2022/07/19 01:15:46;;;;;;;;;;;14.60;56.50;;;;;;4121459;28;20408;-85
2022/07/19 01:18:06;;;;;;;;;;;14.60;56.10;;;;;;4131628;28;19952;-85
2022/07/19 01:20:25;;;;;;;;;;;14.60;56.10;;;;;;4132900;28;19920;-85
2022/07/19 01:22:45;;;;;;;;;;;14.50;56.10;;;;;;4116439;28;19920;-85
2022/07/19 01:25:05;;;;;;;;;;;14.50;56.00;;;;;;4129683;28;20407;-85
2022/07/19 01:27:24;;;;;;;;;;;14.40;56.20;;;;;;4117698;28;19944;-85
2022/07/19 01:29:43;;;;;;;;;;;14.40;56.10;;;;;;4134039;28;19924;-85
2022/07/19 01:32:04;;;;;;;;;;;14.40;56.80;;;;;;4130117;28;19948;-85
2022/07/19 01:34:23;;;;;;;;;;;14.30;56.20;;;;;;4132039;28;19956;-86
2022/07/19 01:36:45;;;;;;;;;;;14.30;56.40;;;;;;4121620;28;19925;-85
2022/07/19 01:39:04;;;;;;;;;;;14.30;56.40;;;;;;4116015;28;19928;-86
2022/07/19 01:41:24;;;;;;;;;;;14.30;56.30;;;;;;4135392;28;20411;-86
2022/07/19 01:43:44;;;;;;;;;;;14.20;56.30;;;;;;4119259;28;19928;-85
2022/07/19 01:46:03;;;;;;;;;;;14.20;56.90;;;;;;4134780;28;19971;-85
2022/07/19 01:48:23;;;;;;;;;;;14.20;56.50;;;;;;4133909;28;20285;-85
2022/07/19 01:50:42;;;;;;;;;;;14.10;56.60;;;;;;4132918;28;20352;-86
2022/07/19 01:53:01;;;;;;;;;;;14.10;57.10;;;;;;4116682;28;20000;-85
2022/07/19 01:55:21;;;;;;;;;;;14.10;57.10;;;;;;4134589;28;19919;-85
2022/07/19 01:57:40;;;;;;;;;;;14.10;56.60;;;;;;4121141;28;19920;-85
2022/07/19 01:59:59;;;;;;;;;;;14.00;56.60;;;;;;4124125;28;20244;-85
2022/07/19 02:02:18;;;;;;;;;;;14.00;56.70;;;;;;4140555;28;19936;-86
2022/07/19 02:04:37;;;;;;;;;;;14.00;56.70;;;;;;4139559;28;19924;-86
2022/07/19 02:06:57;;;;;;;;;;;13.90;56.70;;;;;;4122891;28;19968;-86
2022/07/19 02:09:16;;;;;;;;;;;13.90;56.70;;;;;;4118015;28;19929;-86
2022/07/19 02:11:35;;;;;;;;;;;13.90;57.40;;;;;;4136347;28;20488;-85
2022/07/19 02:13:54;;;;;;;;;;;13.80;57.40;;;;;;4135477;28;20632;-85
2022/07/19 02:16:13;;;;;;;;;;;13.80;56.90;;;;;;4136169;28;20625;-85
2022/07/19 02:18:33;;;;;;;;;;;13.80;57.50;;;;;;4152833;28;19921;-85
2022/07/19 02:20:52;;;;;;;;;;;13.80;56.90;;;;;;4147732;28;19950;-86
2022/07/19 02:23:11;;;;;;;;;;;13.80;56.90;;;;;;4140191;28;19920;-86
2022/07/19 02:25:30;;;;;;;;;;;13.70;56.90;;;;;;4140815;28;19920;-85
2022/07/19 02:27:50;;;;;;;;;;;13.70;57.00;;;;;;4139634;28;19964;-86
2022/07/19 02:30:11;;;;;;;;;;;13.70;57.60;;;;;;4134027;28;22713;-85
2022/07/19 02:32:30;;;;;;;;;;;13.70;57.10;;;;;;4136032;28;20443;-85
2022/07/19 02:34:50;;;;;;;;;;;13.60;57.10;;;;;;4135395;28;20379;-85
2022/07/19 02:37:09;;;;;;;;;;;13.60;57.20;;;;;;4137329;28;19972;-86
2022/07/19 02:39:28;;;;;;;;;;;13.60;57.10;;;;;;4136411;28;19936;-85
2022/07/19 02:41:47;;;;;;;;;;;13.50;57.10;;;;;;4139189;28;19920;-85
2022/07/19 02:44:07;;;;;;;;;;;13.60;57.20;;;;;;4132744;28;19991;-85
2022/07/19 02:46:26;;;;;;;;;;;13.50;57.90;;;;;;4136243;28;19920;-85
2022/07/19 02:48:45;;;;;;;;;;;13.50;57.80;;;;;;4132416;28;20000;-85
2022/07/19 02:51:04;;;;;;;;;;;13.50;57.80;;;;;;4122435;28;20412;-85
2022/07/19 02:53:23;;;;;;;;;;;13.40;57.60;;;;;;4117776;28;20734;-86
2022/07/19 02:55:43;;;;;;;;;;;13.40;57.40;;;;;;4120766;28;19997;-85
2022/07/19 02:58:05;;;;;;;;;;;13.40;57.40;;;;;;4133918;28;20344;-86
2022/07/19 03:00:24;;;;;;;;;;;13.40;57.50;;;;;;4119616;28;19956;-85
2022/07/19 03:02:43;;;;;;;;;;;13.30;57.40;;;;;;4135153;28;19970;-85
2022/07/19 03:05:03;;;;;;;;;;;13.30;57.40;;;;;;4131762;28;20017;-85
2022/07/19 03:07:22;;;;;;;;;;;13.30;57.40;;;;;;4119546;28;19925;-85
2022/07/19 03:09:41;;;;;;;;;;;13.30;57.50;;;;;;4130405;28;19932;-85
2022/07/19 03:12:01;;;;;;;;;;;13.30;57.60;;;;;;4134659;28;20336;-85
2022/07/19 03:14:20;;;;;;;;;;;13.30;57.60;;;;;;4117703;28;20527;-85
2022/07/19 03:16:39;;;;;;;;;;;13.30;57.70;;;;;;4136295;28;19928;-85
2022/07/19 03:18:58;;;;;;;;;;;13.20;57.60;;;;;;4136001;28;19944;-85
2022/07/19 03:21:17;;;;;;;;;;;13.20;57.70;;;;;;4134978;28;19967;-84
2022/07/19 03:23:37;;;;;;;;;;;13.20;57.80;;;;;;4134384;28;20231;-84
2022/07/19 03:25:56;;;;;;;;;;;13.20;57.80;;;;;;4121322;28;19944;-85
2022/07/19 03:28:15;;;;;;;;;;;13.20;57.80;;;;;;4136538;28;20680;-85
2022/07/19 03:30:34;;;;;;;;;;;13.10;57.90;;;;;;4136115;28;19924;-86
2022/07/19 03:32:54;;;;;;;;;;;13.20;58.00;;;;;;4137107;28;19996;-85
2022/07/19 03:35:13;;;;;;;;;;;13.10;58.00;;;;;;4120873;28;19928;-85
2022/07/19 03:37:32;;;;;;;;;;;13.10;58.00;;;;;;4123110;28;19924;-86
2022/07/19 03:39:51;;;;;;;;;;;13.10;58.00;;;;;;4120044;28;19972;-85
2022/07/19 03:42:10;;;;;;;;;;;13.10;58.00;;;;;;4121094;28;20289;-85
2022/07/19 03:44:30;;;;;;;;;;;13.10;58.20;;;;;;4133916;28;19920;-86
2022/07/19 03:46:49;;;;;;;;;;;13.10;58.20;;;;;;4136506;28;19940;-86
2022/07/19 03:49:08;;;;;;;;;;;13.10;58.40;;;;;;4131157;28;19975;-85
2022/07/19 03:51:27;;;;;;;;;;;13.10;58.40;;;;;;4139263;28;19932;-86
2022/07/19 03:53:47;;;;;;;;;;;13.10;58.80;;;;;;4135299;28;19939;-86
2022/07/19 03:56:06;;;;;;;;;;;13.10;58.30;;;;;;4134437;28;19951;-85
2022/07/19 03:58:25;;;;;;;;;;;13.10;59.50;;;;;;4133722;28;19924;-86
2022/07/19 04:00:45;;;;;;;;;;;13.10;60.30;;;;;;4127532;28;19932;-85
2022/07/19 04:02:45;;;;;;;;;;;13.10;59.60;;;;;;4131228;28;19945;-86
2022/07/19 04:04:46;;;;;;;;;;;13.10;59.80;;;;;;4114265;28;20425;-86
2022/07/19 04:06:47;;;;;;;;;;;13.10;60.20;;;;;;4121092;28;19933;-86
2022/07/19 04:08:47;;;;;;;;;;;13.10;60.70;;;;;;4116796;28;19926;-86
2022/07/19 04:10:48;;;;;;;;;;;13.20;61.30;;;;;;4132158;28;19921;-86
2022/07/19 04:12:48;;;;;;;;;;;13.20;61.90;;;;;;4133469;28;20332;-86
2022/07/19 04:14:49;;;;;;;;;;;13.20;62.30;;;;;;4115999;28;19918;-86
2022/07/19 04:16:50;;;;;;;;;;;13.30;62.00;;;;;;4133470;28;20372;-86
2022/07/19 04:18:54;;;;;;;;;;;13.30;63.20;;;;;;4123931;28;20112;-86
2022/07/19 04:20:54;;;;;;;;;;;13.40;63.80;;;;;;4131193;28;20004;-86
2022/07/19 04:22:56;;;;;;;;;;;13.40;64.30;;;;;;4129981;28;19949;-85
2022/07/19 04:24:57;;;;;;;;;;;13.50;64.80;;;;;;4119865;28;20746;-86
2022/07/19 04:26:57;;;;;;;;;;;13.50;64.40;;;;;;4134125;28;19913;-86
2022/07/19 04:28:58;;;;;;;;;;;13.60;64.80;;;;;;4118097;28;19921;-86
2022/07/19 04:30:59;;;;;;;;;;;13.70;63.80;;;;;;4102533;28;19989;-88
2022/07/19 04:33:00;;;;;;;;;;;13.70;62.80;;;;;;4114690;28;19993;-86
2022/07/19 04:35:01;;;;;;;;;;;13.80;62.30;;;;;;4133267;28;19914;-85
2022/07/19 04:37:02;;;;;;;;;;;13.90;62.20;;;;;;4131857;28;19945;-86
2022/07/19 04:39:02;;;;;;;;;;;13.90;61.70;;;;;;4115535;28;19922;-86
2022/07/19 04:41:03;;;;;;;;;;;14.00;61.20;;;;;;4128512;28;19922;-85
2022/07/19 04:43:03;;;;;;;;;;;14.00;61.30;;;;;;4124790;28;19928;-85
2022/07/19 04:45:05;;;;;;;;;;;14.10;62.70;;;;;;4134211;28;19924;-85
2022/07/19 04:47:05;;;;;;;;;;;14.10;63.10;;;;;;4137254;28;20313;-85
2022/07/19 04:49:06;;;;;;;;;;;14.20;62.30;;;;;;4141659;28;19927;-85
2022/07/19 04:51:07;;;;;;;;;;;14.30;62.00;;;;;;4095083;28;19930;-86
2022/07/19 04:53:08;;;;;;;;;;;14.30;61.70;;;;;;4111020;28;20831;-86
2022/07/19 04:55:09;;;;;;;;;;;14.40;61.60;;;;;;4132083;28;19953;-86
2022/07/19 04:57:09;;;;;;;;;;;14.50;60.80;;;;;;4116537;28;20336;-86
2022/07/19 04:59:10;;;;;;;;;;;14.50;60.50;;;;;;4131083;28;19922;-85
2022/07/19 05:01:11;;;;;;;;;;;14.60;60.00;;;;;;4125833;28;19926;-85
2022/07/19 05:03:11;;;;;;;;;;;14.70;61.00;;;;;;4117943;28;20381;-85
2022/07/19 05:05:13;;;;;;;;;;;14.70;61.90;;;;;;4117271;28;19968;-85
2022/07/19 05:07:14;;;;;;;;;;;14.80;63.20;;;;;;4119995;28;19956;-85
2022/07/19 05:09:15;;;;;;;;;;;14.90;64.40;;;;;;4118462;28;19925;-87
2022/07/19 05:11:16;;;;;;;;;;;14.90;65.50;;;;;;4125518;28;19956;-85
2022/07/19 05:13:16;;;;;;;;;;;15.10;67.30;;;;;;4139248;28;20670;-86
2022/07/19 05:15:17;;;;;;;;;;;15.20;67.50;;;;;;4126958;28;19940;-86
2022/07/19 05:17:17;;;;;;;;;;;15.30;68.10;;;;;;4141108;28;19949;-86
2022/07/19 05:19:18;;;;;;;;;;;15.40;68.80;;;;;;4120073;28;20392;-85
2022/07/19 05:21:18;;;;;;;;;;;15.50;69.10;;;;;;4120896;28;19918;-85
2022/07/19 05:23:19;;;;;;;;;;;15.70;69.50;;;;;;4145758;28;19918;-84
2022/07/19 05:25:20;;;;;;;;;;;15.80;69.40;;;;;;4126434;28;19918;-85
2022/07/19 05:27:20;;;;;;;;;;;15.90;69.20;;;;;;4124583;28;20013;-85
2022/07/19 05:29:21;;;;;;;;;;;16.10;69.30;;;;;;4136665;28;19944;-85
2022/07/19 05:31:21;;;;;;;;;;;16.30;69.10;;;;;;4123818;28;19914;-85
2022/07/19 05:33:22;;;;;;;;;;;16.40;68.80;;;;;;4121280;28;20309;-84
2022/07/19 05:35:23;;;;;;;;;;;16.50;68.10;;;;;;4139604;28;21071;-85
2022/07/19 05:37:26;;;;;;;;;;;16.60;68.20;;;;;;4125616;28;19921;-84
2022/07/19 05:39:27;;;;;;;;;;;16.80;68.40;;;;;;4140396;28;19932;-85
2022/07/19 05:41:27;;;;;;;;;;;16.90;67.40;;;;;;4137104;28;19914;-86
2022/07/19 05:43:28;;;;;;;;;;;17.00;66.90;;;;;;4135984;28;19925;-85
2022/07/19 05:45:28;;;;;;;;;;;17.10;67.50;;;;;;4141135;28;19921;-85
2022/07/19 05:47:29;;;;;;;;;;;17.20;66.60;;;;;;4139719;28;19918;-86
2022/07/19 05:49:30;;;;;;;;;;;17.40;66.50;;;;;;4123956;28;20033;-85
2022/07/19 05:51:30;;;;;;;;;;;17.50;66.20;;;;;;4124440;28;19914;-85
2022/07/19 05:53:31;;;;;;;;;;;17.60;66.10;;;;;;4122243;28;19961;-87
2022/07/19 05:55:31;;;;;;;;;;;17.70;65.70;;;;;;4118792;28;19914;-86
2022/07/19 05:57:32;;;;;;;;;;;17.80;67.30;;;;;;4109435;28;19954;-85
2022/07/19 05:59:35;;;;;;;;;;;17.90;66.50;;;;;;4141253;28;19917;-86
2022/07/19 06:01:35;;;;;;;;;;;18.00;65.70;;;;;;4103690;28;19918;-85
2022/07/19 06:03:36;;;;;;;;;;;18.10;65.10;;;;;;4123069;28;20031;-84
2022/07/19 06:05:37;;;;;;;;;;;18.20;65.30;;;;;;4123027;28;20000;-84
2022/07/19 06:07:37;;;;;;;;;;;18.30;64.90;;;;;;4124086;28;20454;-84
2022/07/19 06:09:38;;;;;;;;;;;18.40;65.30;;;;;;4122819;28;19918;-85
2022/07/19 06:11:40;;;;;;;;;;;18.50;65.00;;;;;;4138637;28;19941;-84
2022/07/19 06:13:44;;;;;;;;;;;18.60;65.00;;;;;;4124860;28;19918;-85
2022/07/19 06:15:44;;;;;;;;;;;18.70;64.90;;;;;;4125311;28;19928;-85
2022/07/19 06:17:45;;;;;;;;;;;18.80;65.00;;;;;;4120249;28;20673;-84
2022/07/19 06:19:45;;;;;;;;;;;18.90;64.80;;;;;;4138309;28;19921;-85
2022/07/19 06:21:46;;;;;;;;;;;19.00;64.40;;;;;;4125504;28;20399;-84
2022/07/19 06:23:47;;;;;;;;;;;19.10;64.60;;;;;;4122884;28;19926;-85
2022/07/19 06:25:47;;;;;;;;;;;19.20;64.20;;;;;;4127946;28;19918;-85
2022/07/19 06:27:48;;;;;;;;;;;19.30;63.90;;;;;;4123238;28;19926;-85
2022/07/19 06:29:48;;;;;;;;;;;19.40;63.80;;;;;;4113245;28;20043;-85
2022/07/19 06:31:49;;;;;;;;;;;19.50;63.40;;;;;;4129439;28;19917;-84
2022/07/19 06:33:50;;;;;;;;;;;19.60;63.30;;;;;;4116729;28;19963;-85
2022/07/19 06:35:51;;;;;;;;;;;19.70;63.20;;;;;;4130311;28;19924;-84
2022/07/19 06:37:51;;;;;;;;;;;19.80;63.10;;;;;;4113972;28;20282;-85
2022/07/19 06:39:52;;;;;;;;;;;19.90;62.90;;;;;;4137460;28;20379;-84
2022/07/19 06:41:53;;;;;;;;;;;20.10;63.10;;;;;;4135946;28;19914;-85
2022/07/19 06:43:53;;;;;;;;;;;20.20;62.80;;;;;;4118088;28;19949;-85
2022/07/19 06:45:55;;;;;;;;;;;20.20;62.40;;;;;;4101819;28;20042;-84
2022/07/19 06:47:55;;;;;;;;;;;20.30;62.30;;;;;;4129191;28;21584;-85
2022/07/19 06:49:56;;;;;;;;;;;20.50;62.20;;;;;;4122093;28;19921;-84
2022/07/19 06:51:56;;;;;;;;;;;20.60;61.90;;;;;;4135838;28;19924;-84
2022/07/19 06:53:57;;;;;;;;;;;20.70;61.60;;;;;;4123153;28;19922;-84
2022/07/19 06:55:58;;;;;;;;;;;20.80;61.40;;;;;;4145238;28;19980;-84
2022/07/19 06:57:58;;;;;;;;;;;20.90;61.10;;;;;;4136214;28;20133;-84
2022/07/19 06:59:59;;;;;;;;;;;21.00;60.70;;;;;;4119644;28;19971;-84
2022/07/19 07:01:59;;;;;;;;;;;21.20;60.50;;;;;;4130066;28;22160;-84
2022/07/19 07:04:00;;;;;;;;;;;21.30;60.20;;;;;;4134298;28;19914;-84
2022/07/19 07:06:00;;;;;;;;;;;21.40;59.90;;;;;;4128097;28;20289;-84
2022/07/19 07:08:01;;;;;;;;;;;21.50;59.70;;;;;;4116350;28;19985;-85
2022/07/19 07:10:03;;;;;;;;;;;21.60;59.50;;;;;;4133683;28;19921;-84
2022/07/19 07:12:04;;;;;;;;;;;21.70;58.90;;;;;;4101798;28;19922;-84
2022/07/19 07:14:04;;;;;;;;;;;21.80;58.70;;;;;;4136615;28;19928;-84
2022/07/19 07:16:05;;;;;;;;;;;21.90;58.60;;;;;;4133857;28;19917;-84
2022/07/19 07:18:05;;;;;;;;;;;22.00;58.50;;;;;;4122292;28;19925;-84
2022/07/19 07:20:10;;;;;;;;;;;22.10;58.20;;;;;;4138099;28;20434;-83
2022/07/19 07:22:12;;;;;;;;;;;22.30;58.10;;;;;;4117336;28;19914;-83
2022/07/19 07:24:12;;;;;;;;;;;22.40;58.20;;;;;;4103652;28;19989;-84
2022/07/19 07:26:13;;;;;;;;;;;22.50;57.90;;;;;;4119055;28;20337;-84
2022/07/19 07:28:13;;;;;;;;;;;22.60;57.40;;;;;;4121630;28;20048;-83
2022/07/19 07:30:14;;;;;;;;;;;22.70;56.90;;;;;;4137289;28;19932;-84
2022/07/19 07:32:14;;;;;;;;;;;22.90;56.80;;;;;;4124956;28;20751;-84
2022/07/19 07:34:15;;;;;;;;;;;23.00;56.50;;;;;;4118254;28;19929;-84
2022/07/19 07:36:16;;;;;;;;;;;23.10;56.30;;;;;;4133988;28;19997;-84
2022/07/19 07:38:16;;;;;;;;;;;23.20;54.90;;;;;;4099945;28;20044;-84
2022/07/19 07:40:17;;;;;;;;;;;23.30;54.50;;;;;;4136128;28;19917;-84
2022/07/19 07:42:17;;;;;;;;;;;23.40;55.00;;;;;;4130421;28;19968;-84
2022/07/19 07:44:18;;;;;;;;;;;23.50;54.80;;;;;;4112931;28;19922;-84
2022/07/19 07:46:19;;;;;;;;;;;23.60;54.30;;;;;;4132930;28;19926;-84
2022/07/19 07:48:19;;;;;;;;;;;23.70;52.90;;;;;;4134534;28;19922;-83
2022/07/19 07:50:22;;;;;;;;;;;23.80;53.20;;;;;;4121867;28;20533;-84
2022/07/19 07:52:23;;;;;;;;;;;23.90;53.50;;;;;;4120967;28;19973;-83
2022/07/19 07:54:24;;;;;;;;;;;24.00;53.60;;;;;;4104006;28;20005;-84
2022/07/19 07:56:25;;;;;;;;;;;24.10;50.00;;;;;;4131646;28;19924;-83
2022/07/19 07:58:26;;;;;;;;;;;24.20;50.90;;;;;;4104143;28;19922;-83
2022/07/19 08:00:26;;;;;;;;;;;24.30;49.20;;;;;;4119789;28;19921;-84
2022/07/19 08:02:27;;;;;;;;;;;24.40;51.00;;;;;;4118616;28;20447;-84
2022/07/19 08:04:28;;;;;;;;;;;24.50;49.20;;;;;;4123473;28;19914;-84
2022/07/19 08:06:28;;;;;;;;;;;24.50;51.30;;;;;;4114935;28;20613;-83
2022/07/19 08:08:29;;;;;;;;;;;24.60;51.70;;;;;;4134965;28;19954;-84
2022/07/19 08:10:32;;;;;;;;;;;24.70;50.80;;;;;;4132467;28;19997;-83
2022/07/19 08:12:33;;;;;;;;;;;24.70;50.10;;;;;;4135054;28;20020;-83
2022/07/19 08:14:34;;;;;;;;;;;24.80;48.40;;;;;;4124309;28;19949;-82
2022/07/19 08:16:34;;;;;;;;;;;24.90;49.50;;;;;;4116532;28;20004;-83
2022/07/19 08:18:35;;;;;;;;;;;24.90;50.10;;;;;;4135523;28;20032;-84
2022/07/19 08:20:36;;;;;;;;;;;25.00;50.30;;;;;;4135580;28;19925;-83
2022/07/19 08:22:37;;;;;;;;;;;25.00;50.10;;;;;;4117138;28;20013;-84
2022/07/19 08:24:37;;;;;;;;;;;25.10;49.80;;;;;;4136974;28;20369;-84
2022/07/19 08:26:38;;;;;;;;;;;25.20;49.50;;;;;;4145776;28;19925;-82
2022/07/19 08:28:39;;;;;;;;;;;25.20;47.80;;;;;;4139162;28;19926;-84
2022/07/19 08:30:39;;;;;;;;;;;25.30;47.30;;;;;;4133252;28;20364;-83
2022/07/19 08:32:40;;;;;;;;;;;25.30;47.30;;;;;;4134735;28;19952;-84
2022/07/19 08:34:41;;;;;;;;;;;25.40;45.20;;;;;;4136134;28;19918;-83
2022/07/19 08:36:41;;;;;;;;;;;25.50;47.00;;;;;;4138105;28;19917;-84
2022/07/19 08:38:42;;;;;;;;;;;25.50;46.50;;;;;;4135927;28;19917;-83
2022/07/19 08:40:42;;;;;;;;;;;25.60;42.60;;;;;;4137335;28;20009;-83
2022/07/19 08:42:43;;;;;;;;;;;25.70;45.40;;;;;;4117178;28;19930;-84
2022/07/19 08:44:44;;;;;;;;;;;25.70;45.40;;;;;;4104805;28;19922;-84
2022/07/19 08:46:45;;;;;;;;;;;25.80;43.60;;;;;;4132934;28;19944;-84
2022/07/19 08:48:47;;;;;;;;;;;25.90;45.70;;;;;;4138999;28;19921;-83
2022/07/19 08:50:50;;;;;;;;;;;25.90;46.10;;;;;;4117973;28;20405;-83
2022/07/19 08:52:51;;;;;;;;;;;26.00;45.70;;;;;;4136395;28;19956;-84
2022/07/19 08:54:51;;;;;;;;;;;26.10;43.20;;;;;;4116845;28;19921;-84
2022/07/19 08:59:11;;;;;;;;;;;26.20;44.20;;;;;;4115726;28;19958;-84
2022/07/19 09:01:12;;;;;;;;;;;26.20;44.60;;;;;;4137067;28;19913;-83
2022/07/19 09:03:12;;;;;;;;;;;26.30;45.00;;;;;;4133095;28;20381;-84
2022/07/19 09:05:14;;;;;;;;;;;26.40;44.80;;;;;;4141362;28;19920;-83
2022/07/19 09:07:18;;;;;;;;;;;26.40;45.90;;;;;;4140637;28;19924;-84
2022/07/19 09:09:21;;;;;;;;;;;26.50;38.40;;;;;;4104607;28;20285;-83
2022/07/19 09:11:32;;;;;;;;;;;26.60;40.40;;;;;;4140441;28;19922;-84
2022/07/19 09:13:33;;;;;;;;;;;26.70;42.20;;;;;;4124252;28;20591;-83
2022/07/19 09:15:46;;;;;;;;;;;26.80;44.00;;;;;;4143034;28;19917;-84
2022/07/19 09:17:46;;;;;;;;;;;26.90;41.90;;;;;;4138195;28;19932;-84
2022/07/19 09:19:49;;;;;;;;;;;26.90;42.60;;;;;;4136094;28;20407;-83
2022/07/19 09:21:57;;;;;;;;;;;27.10;43.30;;;;;;4140337;28;19910;-83
2022/07/19 09:23:58;;;;;;;;;;;27.10;38.10;;;;;;4139901;28;19921;-84
2022/07/19 09:26:05;;;;;;;;;;;27.20;42.40;;;;;;4137083;28;20270;-83
2022/07/19 09:28:05;;;;;;;;;;;27.30;38.60;;;;;;4132665;28;19926;-83
2022/07/19 09:30:06;;;;;;;;;;;27.30;41.70;;;;;;4137108;28;19961;-84
2022/07/19 09:32:11;;;;;;;;;;;27.40;38.20;;;;;;4125436;28;20389;-83
2022/07/19 09:34:12;;;;;;;;;;;27.50;42.10;;;;;;4123336;28;20603;-85
2022/07/19 09:36:16;;;;;;;;;;;27.50;41.50;;;;;;4136867;28;19991;-83
2022/07/19 09:38:18;;;;;;;;;;;27.60;41.40;;;;;;4133301;28;19925;-83
2022/07/19 09:40:18;;;;;;;;;;;27.70;42.10;;;;;;4132227;28;19957;-83
2022/07/19 09:42:20;;;;;;;;;;;27.80;41.00;;;;;;4124001;28;19921;-83
2022/07/19 09:44:22;;;;;;;;;;;27.80;39.20;;;;;;4139774;28;19920;-83
2022/07/19 09:46:29;;;;;;;;;;;27.90;41.40;;;;;;4134849;28;20389;-84
2022/07/19 09:48:42;;;;;;;;;;;27.90;38.60;;;;;;4136994;28;20389;-83
2022/07/19 09:50:44;;;;;;;;;;;28.00;39.80;;;;;;4125194;28;19922;-83
2022/07/19 09:52:46;;;;;;;;;;;28.10;41.10;;;;;;4118468;28;19914;-83
2022/07/19 09:54:46;;;;;;;;;;;28.10;36.20;;;;;;4135757;28;20363;-83
2022/07/19 09:56:49;;;;;;;;;;;28.20;38.60;;;;;;4133258;28;19924;-84
2022/07/19 09:58:51;;;;;;;;;;;28.20;37.80;;;;;;4142561;28;19902;-84
2022/07/19 10:00:51;;;;;;;;;;;28.20;37.50;;;;;;4136700;28;20655;-83
2022/07/19 10:02:52;;;;;;;;;;;28.30;37.20;;;;;;4133577;28;19913;-84
2022/07/19 10:04:53;;;;;;;;;;;28.30;36.60;;;;;;4115643;28;19940;-84
2022/07/19 10:06:54;;;;;;;;;;;28.40;34.80;;;;;;4136110;28;20083;-83
2022/07/19 10:08:56;;;;;;;;;;;28.40;36.00;;;;;;4136364;28;19924;-83
2022/07/19 10:10:56;;;;;;;;;;;28.50;38.00;;;;;;4118159;28;19922;-84
2022/07/19 10:12:57;;;;;;;;;;;28.50;38.30;;;;;;4132779;28;19965;-84
2022/07/19 10:14:58;;;;;;;;;;;28.60;39.60;;;;;;4134805;28;19925;-83
2022/07/19 10:17:04;;;;;;;;;;;28.70;39.60;;;;;;4117604;28;19914;-83
2022/07/19 10:19:08;;;;;;;;;;;28.70;39.60;;;;;;4119083;28;19945;-84
2022/07/19 10:21:08;;;;;;;;;;;28.70;35.10;;;;;;4136353;28;19918;-83
2022/07/19 10:23:09;;;;;;;;;;;28.80;38.40;;;;;;4138541;28;19928;-83
2022/07/19 10:25:11;;;;;;;;;;;28.80;38.60;;;;;;4139023;28;19913;-85
2022/07/19 10:27:12;;;;;;;;;;;28.90;36.80;;;;;;4120109;28;19918;-84
2022/07/19 10:29:16;;;;;;;;;;;28.90;38.20;;;;;;4135017;28;19940;-84
2022/07/19 10:31:25;;;;;;;;;;;29.00;38.70;;;;;;4138606;28;19960;-85
2022/07/19 10:33:28;;;;;;;;;;;29.10;38.20;;;;;;4137778;28;19917;-83
2022/07/19 10:35:30;;;;;;;;;;;29.10;35.40;;;;;;4138989;28;19921;-83
2022/07/19 10:37:40;;;;;;;;;;;29.20;37.60;;;;;;4136966;28;19917;-83
2022/07/19 10:39:41;;;;;;;;;;;29.20;37.30;;;;;;4137825;28;19932;-84
2022/07/19 10:42:01;;;;;;;;;;;29.20;36.30;;;;;;4136534;28;20364;-84
2022/07/19 10:44:07;;;;;;;;;;;29.30;37.60;;;;;;4119619;28;19918;-84
2022/07/19 10:46:09;;;;;;;;;;;29.30;35.60;;;;;;4133745;28;19918;-84
2022/07/19 10:48:11;;;;;;;;;;;29.40;36.60;;;;;;4140602;28;19925;-85
2022/07/19 10:50:21;;;;;;;;;;;29.40;35.50;;;;;;4138219;28;19913;-84
2022/07/19 10:52:31;;;;;;;;;;;29.40;36.80;;;;;;4137121;28;19945;-83
2022/07/19 10:54:33;;;;;;;;;;;29.40;36.80;;;;;;4126290;28;19922;-83
2022/07/19 10:56:38;;;;;;;;;;;29.40;36.70;;;;;;4152795;28;19973;-85
2022/07/19 10:58:48;;;;;;;;;;;29.40;36.30;;;;;;4142567;28;20335;-84
2022/07/19 11:00:49;;;;;;;;;;;29.40;33.90;;;;;;4103795;28;19950;-84
2022/07/19 11:02:51;;;;;;;;;;;29.40;35.20;;;;;;4134274;28;20007;-85
2022/07/19 11:04:52;;;;;;;;;;;29.40;35.60;;;;;;4137868;28;19988;-85
2022/07/19 11:07:09;;;;;;;;;;;29.40;36.20;;;;;;4119255;28;20000;-84
2022/07/19 11:09:10;;;;;;;;;;;29.30;35.30;;;;;;4138423;28;19926;-85
2022/07/19 11:11:12;;;;;;;;;;;29.30;36.40;;;;;;4100630;28;19925;-85
2022/07/19 11:13:15;;;;;;;;;;;29.30;36.50;;;;;;4135767;28;19921;-85
2022/07/19 11:15:16;;;;;;;;;;;29.10;36.00;;;;;;4117851;28;20004;-85
2022/07/19 11:17:17;;;;;;;;;;;29.10;35.60;;;;;;4135817;28;19965;-85
2022/07/19 11:19:17;;;;;;;;;;;29.00;36.60;;;;;;4120567;28;20629;-84
2022/07/19 11:21:18;;;;;;;;;;;28.90;36.10;;;;;;4118142;28;20012;-84
2022/07/19 11:23:20;;;;;;;;;;;28.80;36.00;;;;;;4138156;28;19924;-83
2022/07/19 11:25:25;;;;;;;;;;;28.80;36.60;;;;;;4137135;28;19924;-85
2022/07/19 11:27:26;;;;;;;;;;;28.60;36.30;;;;;;4115262;28;20000;-85
2022/07/19 11:29:47;;;;;;;;;;;28.50;36.20;;;;;;4143201;28;19918;-84
2022/07/19 11:31:47;;;;;;;;;;;28.50;36.50;;;;;;4138710;28;20032;-86
2022/07/19 11:33:49;;;;;;;;;;;28.40;36.70;;;;;;4134199;28;19914;-85
2022/07/19 11:35:54;;;;;;;;;;;28.40;36.70;;;;;;4118901;28;19924;-85
2022/07/19 11:37:56;;;;;;;;;;;28.30;37.60;;;;;;4118337;28;19917;-83
2022/07/19 11:40:00;;;;;;;;;;;28.30;37.60;;;;;;4136303;28;19909;-86
2022/07/19 11:42:00;;;;;;;;;;;28.20;37.50;;;;;;4116376;28;19954;-85
2022/07/19 11:44:03;;;;;;;;;;;28.20;37.30;;;;;;4121541;28;19913;-86
2022/07/19 11:46:04;;;;;;;;;;;28.10;36.10;;;;;;4118672;28;19913;-85
2022/07/19 11:48:05;;;;;;;;;;;28.10;37.00;;;;;;4119093;28;19926;-85
2022/07/19 11:50:06;;;;;;;;;;;28.10;37.30;;;;;;4119234;28;19914;-85
2022/07/19 11:52:07;;;;;;;;;;;28.00;37.80;;;;;;4135680;28;19923;-86
2022/07/19 11:54:08;;;;;;;;;;;27.90;37.70;;;;;;4136141;28;19957;-86
2022/07/19 11:56:20;;;;;;;;;;;27.90;38.00;;;;;;4116852;28;19922;-86
2022/07/19 11:58:21;;;;;;;;;;;27.90;37.50;;;;;;4137870;28;19914;-85
2022/07/19 12:00:21;;;;;;;;;;;27.90;37.40;;;;;;4133642;28;19914;-84
2022/07/19 12:02:22;;;;;;;;;;;27.90;38.00;;;;;;4103043;28;19914;-84
2022/07/19 12:04:23;;;;;;;;;;;27.80;37.10;;;;;;4119384;28;20032;-85
2022/07/19 12:06:44;;;;;;;;;;;27.80;38.10;;;;;;4136732;28;19917;-86
2022/07/19 12:09:10;;;;;;;;;;;27.80;38.20;;;;;;4118721;28;19960;-85
2022/07/19 12:11:37;;;;;;;;;;;27.80;37.40;;;;;;4117321;28;19914;-86
2022/07/19 12:13:58;;;;;;;;;;;27.90;37.00;;;;;;4117804;28;19955;-86
2022/07/19 12:16:19;;;;;;;;;;;27.80;36.70;;;;;;4132620;28;19944;-86
2022/07/19 12:18:44;;;;;;;;;;;27.80;37.10;;;;;;4120421;28;20448;-86
2022/07/19 12:21:21;;;;;;;;;;;27.80;37.10;;;;;;4135163;28;19929;-87
2022/07/19 12:23:42;;;;;;;;;;;27.70;37.40;;;;;;4117180;28;19929;-86